Hauptseite
METAR-TAF:

METAR-TAF

Flughäfen :

Flughafen Cuneo

Cuneo, Italien

Breite: 44-32-47N, Länge: 007-37-20E, Höhe: 386 m

Beobachtung

Neuester Wetterbericht von vor 9 Stunden und 6 Minuten, um 18:50 UTC
Wind 4 kt aus West/Nordwest
Temperatur 15°C
Luftfeuchtigkeit 82%
Luftdruck 1020 hPa
Sichtweite: 7000 m
Durchbrochene Bewölkung in der Höhe von 2000 ft

METAR: LIMZ 151850Z 29004KT 7000 BKN020 15/12 Q1020

Zeit: 05:56 (03:56 UTC)

Prognose

Neuester Wetterbericht von vor 10 Stunden und 56 Minuten, um 17:00 UTC
Gültige Prognose vom 15 um 18 UTC bis 16 um 18 UTC
Wind 5 kt aus unterschiedlichen Richtungen
Sichtweite: 7000 m
Durchbrochene Bewölkung in der Höhe von 4000 ft
Zeitweise
vom 15 um 18 UTC bis 15 um 24 UTC
Regen

TAF: LIMZ 151700Z 1518/1618 VRB05KT 7000 BKN040 TEMPO 1518/1524 RA

Wetterbeobachtungen und Prognosen von mehr als 4000 Flughäfen (METAR und TAF Bericht).

Die verfügbaren Stationen werden durch gelbe und rote Markierungen auf der Karte dargestellt.

Führen Sie die Maus auf sie, um den Namen der Station zu sehen.

Darauf klicken, um die Beobachtung von Wetterbeobachtungen und Prognosen zu sehen.

Um die Karte zu ändern : klicken Sie auf den grünen Tasten mit einem schwarzen Kreuz Zum Vergrößern, auf den grünen Button mit einem Gedankenstrich zu verkleinern, oder auf die grünen Pfeile für benachbarte Karten.


METAR-TAF: